createdAt,value
2022-09-09T00:00:55.325Z,100.00
2022-09-09T00:03:56.441Z,100.00
2022-09-09T00:06:50.317Z,100.00
2022-09-09T00:10:22.280Z,100.00
2022-09-09T00:13:28.866Z,100.00
2022-09-09T00:16:25.213Z,100.00
2022-09-09T00:19:28.058Z,100.00
2022-09-09T00:22:21.144Z,100.00
2022-09-09T00:25:29.010Z,100.00
2022-09-09T00:28:26.618Z,100.00
2022-09-09T00:31:20.003Z,100.00
2022-09-09T00:34:13.831Z,100.00
2022-09-09T00:37:00.947Z,100.00
2022-09-09T00:39:49.316Z,100.00
2022-09-09T00:42:44.700Z,100.00
2022-09-09T00:45:59.230Z,100.00
2022-09-09T00:48:58.269Z,100.00
2022-09-09T00:51:59.063Z,100.00
2022-09-09T00:54:46.009Z,100.00
2022-09-09T00:57:37.481Z,100.00
2022-09-09T01:00:28.691Z,100.00
2022-09-09T01:03:34.963Z,100.00
2022-09-09T01:06:28.432Z,100.00
2022-09-09T01:09:39.721Z,100.00
2022-09-09T01:12:41.960Z,100.00
2022-09-09T01:15:32.492Z,100.00
2022-09-09T01:18:22.902Z,100.00
2022-09-09T01:21:18.654Z,100.00
2022-09-09T01:24:14.604Z,100.00
2022-09-09T01:27:05.311Z,100.00
2022-09-09T01:29:52.637Z,100.00
2022-09-09T01:32:41.438Z,100.00
2022-09-09T01:35:56.230Z,100.00
2022-09-09T01:38:43.245Z,100.00
2022-09-09T01:41:30.383Z,100.00
2022-09-09T01:44:19.219Z,100.00
2022-09-09T01:47:07.228Z,100.00
2022-09-09T01:49:54.208Z,100.00
2022-09-09T01:52:42.237Z,100.00
2022-09-09T01:56:10.503Z,100.00
2022-09-09T01:59:25.638Z,100.00
2022-09-09T02:02:16.034Z,100.00
2022-09-09T02:05:17.475Z,100.00
2022-09-09T02:08:10.170Z,100.00
2022-09-09T02:11:08.123Z,100.00
2022-09-09T02:14:01.119Z,100.00
2022-09-09T02:17:00.803Z,100.00
2022-09-09T02:19:52.420Z,100.00
2022-09-09T02:22:43.716Z,100.00
2022-09-09T02:25:30.942Z,100.00
2022-09-09T02:28:19.377Z,100.00
2022-09-09T02:31:07.616Z,100.00
2022-09-09T02:34:00.417Z,100.00
2022-09-09T02:36:49.352Z,100.00
2022-09-09T02:39:36.504Z,100.00
2022-09-09T02:42:24.938Z,100.00
2022-09-09T02:45:16.309Z,100.00
2022-09-09T02:48:14.897Z,100.00
2022-09-09T02:51:16.225Z,100.00
2022-09-09T02:54:22.158Z,100.00
2022-09-09T02:57:20.210Z,100.00
2022-09-09T03:00:07.974Z,100.00
2022-09-09T03:02:55.654Z,100.00
2022-09-09T03:05:44.173Z,100.00
2022-09-09T03:08:31.232Z,100.00
2022-09-09T03:11:18.408Z,100.00
2022-09-09T03:14:05.989Z,100.00
2022-09-09T03:16:54.254Z,100.00
2022-09-09T03:19:41.243Z,100.00
2022-09-09T03:22:28.284Z,100.00
2022-09-09T03:25:15.223Z,100.00
2022-09-09T03:28:02.724Z,100.00
2022-09-09T03:30:50.047Z,100.00
2022-09-09T03:33:42.172Z,100.00
2022-09-09T03:36:29.284Z,100.00
2022-09-09T03:39:16.577Z,100.00
2022-09-09T03:42:06.772Z,100.00
2022-09-09T03:44:53.823Z,100.00
2022-09-09T03:47:40.808Z,100.00
2022-09-09T03:50:27.716Z,100.00
2022-09-09T03:53:16.260Z,100.00
2022-09-09T03:56:04.263Z,100.00
2022-09-09T03:58:51.192Z,100.00
2022-09-09T04:01:38.116Z,100.00
2022-09-09T04:04:25.036Z,100.00
2022-09-09T04:07:12.906Z,100.00
2022-09-09T04:09:59.810Z,100.00
2022-09-09T04:12:49.541Z,100.00
2022-09-09T04:15:37.671Z,100.00
2022-09-09T04:18:25.483Z,100.00
2022-09-09T04:21:13.392Z,100.00
2022-09-09T04:24:00.941Z,100.00
2022-09-09T04:26:48.488Z,100.00
2022-09-09T04:29:35.541Z,100.00
2022-09-09T04:32:22.798Z,100.00
2022-09-09T04:35:09.823Z,100.00
2022-09-09T04:37:56.748Z,100.00
2022-09-09T04:40:53.045Z,100.00
2022-09-09T04:43:40.292Z,100.00
2022-09-09T04:46:27.840Z,100.00
2022-09-09T04:49:15.416Z,100.00
2022-09-09T04:52:03.613Z,100.00
2022-09-09T04:54:50.597Z,100.00
2022-09-09T04:57:37.564Z,100.00
2022-09-09T05:00:25.955Z,100.00
2022-09-09T05:03:13.781Z,100.00
2022-09-09T05:06:05.745Z,100.00
2022-09-09T05:08:52.912Z,100.00
2022-09-09T05:11:39.907Z,100.00
2022-09-09T05:14:27.677Z,100.00
2022-09-09T05:17:14.677Z,100.00
2022-09-09T05:20:06.614Z,100.00
2022-09-09T05:22:57.620Z,100.00
2022-09-09T05:25:44.914Z,100.00
2022-09-09T05:28:31.965Z,100.00
2022-09-09T05:31:20.170Z,100.00
2022-09-09T05:34:07.135Z,100.00
2022-09-09T05:36:54.751Z,100.00
2022-09-09T05:39:41.888Z,100.00
2022-09-09T05:42:32.928Z,100.00
2022-09-09T05:45:20.720Z,100.00
2022-09-09T05:48:08.881Z,100.00
2022-09-09T05:50:55.924Z,100.00
2022-09-09T05:53:44.004Z,100.00
2022-09-09T05:56:31.190Z,100.00
2022-09-09T05:59:19.408Z,100.00
2022-09-09T06:02:06.493Z,100.00
2022-09-09T06:04:56.508Z,100.00
2022-09-09T06:07:45.852Z,100.00
2022-09-09T06:10:32.850Z,100.00
2022-09-09T06:13:19.869Z,100.00
2022-09-09T06:16:12.554Z,100.00
2022-09-09T06:19:00.722Z,100.00
2022-09-09T06:21:48.838Z,100.00
2022-09-09T06:24:35.991Z,100.00
2022-09-09T06:27:23.007Z,100.00
2022-09-09T06:30:11.000Z,100.00
2022-09-09T06:32:59.114Z,100.00
2022-09-09T06:35:54.255Z,100.00
2022-09-09T06:38:41.602Z,100.00
2022-09-09T06:41:31.347Z,100.00
2022-09-09T06:44:18.419Z,100.00
2022-09-09T06:47:06.141Z,100.00
2022-09-09T06:49:53.724Z,100.00
2022-09-09T06:52:40.608Z,100.00
2022-09-09T06:55:27.506Z,100.00
2022-09-09T06:58:14.567Z,100.00
2022-09-09T07:01:08.351Z,100.00
2022-09-09T07:03:57.066Z,100.00
2022-09-09T07:06:47.226Z,100.00
2022-09-09T07:09:34.207Z,100.00
2022-09-09T07:12:21.250Z,100.00
2022-09-09T07:15:08.448Z,100.00
2022-09-09T07:17:55.512Z,100.00
2022-09-09T07:20:42.452Z,100.00
2022-09-09T07:23:35.554Z,100.00
2022-09-09T07:26:26.277Z,100.00
2022-09-09T07:29:19.857Z,100.00
2022-09-09T07:32:07.621Z,100.00
2022-09-09T07:34:54.462Z,100.00
2022-09-09T07:37:42.327Z,100.00
2022-09-09T07:40:30.093Z,100.00
2022-09-09T07:43:19.884Z,100.00
2022-09-09T07:46:07.737Z,100.00
2022-09-09T07:48:57.285Z,100.00
2022-09-09T07:51:47.107Z,100.00
2022-09-09T07:54:34.032Z,100.00
2022-09-09T07:57:21.361Z,100.00
2022-09-09T08:00:09.001Z,71.72
2022-09-09T08:02:56.215Z,93.11
2022-09-09T08:05:44.142Z,100.00
2022-09-09T08:08:31.572Z,100.00
2022-09-09T08:11:19.200Z,100.00
2022-09-09T08:14:08.720Z,100.00
2022-09-09T08:16:55.872Z,91.82
2022-09-09T08:19:42.914Z,96.53
2022-09-09T08:22:30.304Z,100.00
2022-09-09T08:25:17.306Z,100.00
2022-09-09T08:28:04.424Z,100.00
2022-09-09T08:30:52.243Z,93.72
2022-09-09T08:33:39.868Z,83.52
2022-09-09T08:36:30.065Z,91.13
2022-09-09T08:39:19.980Z,98.44
2022-09-09T08:42:47.994Z,99.73
2022-09-09T08:45:48.193Z,100.00
2022-09-09T08:48:57.746Z,100.00
2022-09-09T08:51:44.747Z,100.00
2022-09-09T08:54:51.545Z,98.28
2022-09-09T08:57:40.056Z,98.12
2022-09-09T09:00:43.694Z,100.00
2022-09-09T09:04:00.610Z,98.79
2022-09-09T09:06:55.896Z,100.00
2022-09-09T09:10:30.524Z,98.22
2022-09-09T09:13:27.238Z,99.73
2022-09-09T09:16:39.628Z,100.00
2022-09-09T09:19:28.288Z,98.13
2022-09-09T09:22:37.679Z,96.13
2022-09-09T09:25:33.152Z,93.15
2022-09-09T09:28:26.243Z,90.49
2022-09-09T09:31:14.827Z,89.73
2022-09-09T09:34:02.029Z,79.25
2022-09-09T09:36:58.480Z,79.11
2022-09-09T09:43:01.539Z,83.30
2022-09-09T09:46:06.768Z,78.49
2022-09-09T09:49:00.940Z,74.60
2022-09-09T09:51:48.111Z,86.80
2022-09-09T09:54:39.699Z,77.83
2022-09-09T09:57:32.233Z,75.95
2022-09-09T10:00:22.770Z,78.50
2022-09-09T10:03:41.545Z,73.67
2022-09-09T10:06:37.692Z,78.57
2022-09-09T10:09:34.731Z,76.71
2022-09-09T10:12:56.355Z,79.50
2022-09-09T10:15:55.285Z,79.83
2022-09-09T10:19:02.769Z,79.32
2022-09-09T10:21:58.799Z,78.78
2022-09-09T10:25:03.888Z,77.49
2022-09-09T10:28:31.712Z,78.35
2022-09-09T10:31:31.714Z,77.66
2022-09-09T10:34:36.619Z,83.01
2022-09-09T10:37:32.753Z,80.08
2022-09-09T10:40:30.971Z,78.13
2022-09-09T10:43:21.004Z,78.42
2022-09-09T10:46:35.062Z,74.56
2022-09-09T10:49:40.457Z,70.77
2022-09-09T10:53:00.540Z,73.30
2022-09-09T10:55:54.852Z,63.96
2022-09-09T10:58:57.429Z,63.00
2022-09-09T11:01:51.302Z,55.77
2022-09-09T11:04:49.670Z,60.07
2022-09-09T11:07:49.386Z,61.24
2022-09-09T11:11:02.667Z,51.22
2022-09-09T11:14:00.334Z,51.68
2022-09-09T11:16:52.883Z,51.06
2022-09-09T11:19:46.738Z,50.17
2022-09-09T11:23:01.306Z,48.32
2022-09-09T11:25:56.935Z,49.69
2022-09-09T11:29:05.065Z,50.74
2022-09-09T11:31:54.804Z,58.36
2022-09-09T11:35:19.384Z,59.29
2022-09-09T11:38:26.847Z,43.45
2022-09-09T11:41:21.062Z,40.09
2022-09-09T11:44:24.923Z,38.54
2022-09-09T11:47:32.392Z,43.18
2022-09-09T11:50:19.685Z,43.52
2022-09-09T11:53:22.032Z,37.15
2022-09-09T11:56:14.627Z,45.08
2022-09-09T11:59:04.752Z,46.64
2022-09-09T12:01:57.445Z,42.41
2022-09-09T12:04:56.079Z,42.05
2022-09-09T12:07:57.716Z,39.80
2022-09-09T12:10:56.792Z,38.38
2022-09-09T12:13:54.096Z,37.38
2022-09-09T12:16:41.279Z,36.29
2022-09-09T12:19:28.282Z,40.78
2022-09-09T12:22:36.326Z,37.84
2022-09-09T12:25:45.063Z,40.13
2022-09-09T12:29:01.097Z,36.58
2022-09-09T12:31:58.066Z,42.37
2022-09-09T12:35:01.070Z,40.80
2022-09-09T12:37:47.927Z,43.92
2022-09-09T12:40:38.127Z,48.80
2022-09-09T12:43:27.116Z,49.30
2022-09-09T12:46:27.591Z,56.02
2022-09-09T12:49:35.479Z,54.24
2022-09-09T12:52:31.058Z,44.39
2022-09-09T12:55:26.252Z,39.02
2022-09-09T12:58:17.950Z,52.69
2022-09-09T13:01:06.525Z,54.75
2022-09-09T13:03:54.540Z,59.15
2022-09-09T13:06:41.478Z,60.64
2022-09-09T13:09:28.448Z,60.99
2022-09-09T13:12:23.674Z,63.75
2022-09-09T13:15:21.700Z,67.98
2022-09-09T13:18:14.299Z,78.26
2022-09-09T13:21:01.393Z,94.13
2022-09-09T13:23:53.165Z,100.00
2022-09-09T13:26:40.671Z,100.00
2022-09-09T13:29:27.690Z,100.00
2022-09-09T13:32:18.966Z,98.83
2022-09-09T13:35:24.604Z,100.00
2022-09-09T13:38:14.454Z,100.00
2022-09-09T13:41:05.449Z,80.76
2022-09-09T13:43:53.397Z,78.42
2022-09-09T13:46:42.248Z,75.20
2022-09-09T13:49:31.379Z,62.64
2022-09-09T13:52:20.038Z,58.26
2022-09-09T13:55:09.171Z,62.87
2022-09-09T13:57:58.891Z,58.85
2022-09-09T14:00:47.340Z,49.91
2022-09-09T14:03:34.923Z,50.25
2022-09-09T14:06:22.957Z,60.36
2022-09-09T14:09:14.474Z,59.32
2022-09-09T14:12:01.591Z,49.76
2022-09-09T14:14:48.526Z,46.94
2022-09-09T14:17:37.222Z,49.22
2022-09-09T14:20:24.273Z,53.47
2022-09-09T14:23:13.796Z,50.76
2022-09-09T14:26:00.726Z,53.06
2022-09-09T14:28:56.413Z,51.81
2022-09-09T14:31:43.823Z,50.58
2022-09-09T14:34:31.401Z,51.28
2022-09-09T14:37:19.035Z,48.24
2022-09-09T14:40:06.894Z,49.10
2022-09-09T14:42:54.371Z,50.49
2022-09-09T14:45:41.361Z,50.50
2022-09-09T14:48:30.278Z,47.80
2022-09-09T14:51:23.302Z,44.14
2022-09-09T14:54:10.273Z,45.07
2022-09-09T14:56:57.746Z,47.59
2022-09-09T14:59:44.775Z,50.04
2022-09-09T15:02:32.541Z,46.85
2022-09-09T15:05:19.675Z,49.28
2022-09-09T15:08:06.787Z,56.53
2022-09-09T15:11:01.131Z,55.01
2022-09-09T15:13:50.860Z,49.88
2022-09-09T15:16:39.172Z,48.38
2022-09-09T15:19:26.431Z,49.82
2022-09-09T15:22:14.036Z,55.21
2022-09-09T15:25:00.942Z,49.50
2022-09-09T15:27:47.844Z,52.59
2022-09-09T15:30:34.763Z,59.11
2022-09-09T15:33:23.134Z,59.38
2022-09-09T15:36:24.630Z,61.23
2022-09-09T15:39:16.567Z,59.00
2022-09-09T15:42:03.665Z,60.05
2022-09-09T15:44:50.578Z,58.90
2022-09-09T15:47:37.725Z,61.72
2022-09-09T15:50:24.712Z,61.69
2022-09-09T15:53:12.397Z,66.59
2022-09-09T15:56:00.234Z,64.14
2022-09-09T15:58:47.123Z,62.17
2022-09-09T16:01:34.809Z,63.89
2022-09-09T16:04:26.708Z,63.18
2022-09-09T16:07:14.589Z,61.84
2022-09-09T16:10:01.630Z,61.36
2022-09-09T16:12:50.135Z,62.51
2022-09-09T16:15:37.192Z,66.74
2022-09-09T16:18:24.459Z,66.88
2022-09-09T16:21:18.581Z,66.96
2022-09-09T16:24:06.722Z,67.76
2022-09-09T16:26:55.756Z,68.96
2022-09-09T16:29:42.633Z,71.66
2022-09-09T16:32:29.820Z,73.85
2022-09-09T16:35:17.356Z,75.37
2022-09-09T16:38:04.424Z,76.17
2022-09-09T16:40:51.836Z,78.19
2022-09-09T16:43:39.737Z,77.77
2022-09-09T16:46:28.889Z,82.46
2022-09-09T16:49:16.949Z,86.85
2022-09-09T16:52:04.028Z,87.40
2022-09-09T16:54:51.252Z,87.68
2022-09-09T16:57:38.257Z,92.68
2022-09-09T17:00:25.199Z,82.03
2022-09-09T17:03:15.192Z,86.34
2022-09-09T17:06:04.620Z,86.53
2022-09-09T17:09:00.105Z,94.94
2022-09-09T17:11:48.395Z,89.76
2022-09-09T17:14:35.291Z,90.14
2022-09-09T17:17:31.783Z,88.92
2022-09-09T17:20:19.729Z,89.42
2022-09-09T17:23:10.693Z,91.94
2022-09-09T17:25:59.182Z,86.17
2022-09-09T17:28:46.952Z,83.70
2022-09-09T17:31:35.069Z,89.96
2022-09-09T17:34:22.322Z,100.00
2022-09-09T17:37:09.418Z,100.00
2022-09-09T17:39:57.008Z,100.00
2022-09-09T17:42:44.010Z,100.00
2022-09-09T17:45:31.396Z,100.00
2022-09-09T17:48:18.390Z,100.00
2022-09-09T17:51:08.795Z,100.00
2022-09-09T17:54:00.969Z,100.00
2022-09-09T17:56:48.831Z,100.00
2022-09-09T17:59:35.802Z,100.00
2022-09-09T18:02:22.808Z,100.00
2022-09-09T18:05:11.143Z,100.00
2022-09-09T18:07:58.105Z,100.00
2022-09-09T18:10:55.843Z,100.00
2022-09-09T18:13:42.857Z,100.00
2022-09-09T18:16:36.106Z,100.00
2022-09-09T18:19:26.002Z,100.00
2022-09-09T18:22:13.155Z,100.00
2022-09-09T18:25:00.097Z,100.00
2022-09-09T18:27:47.286Z,100.00
2022-09-09T18:30:40.146Z,100.00
2022-09-09T18:33:27.130Z,100.00
2022-09-09T18:36:18.995Z,100.00
2022-09-09T18:39:07.600Z,100.00
2022-09-09T18:41:59.018Z,100.00
2022-09-09T18:44:45.953Z,100.00
2022-09-09T18:47:33.141Z,100.00
2022-09-09T18:50:20.056Z,100.00
2022-09-09T18:53:06.960Z,100.00
2022-09-09T18:56:04.926Z,100.00
2022-09-09T18:58:58.137Z,100.00
2022-09-09T19:01:46.692Z,100.00
2022-09-09T19:04:33.704Z,100.00
2022-09-09T19:07:21.879Z,100.00
2022-09-09T19:10:08.949Z,100.00
2022-09-09T19:12:56.008Z,100.00
2022-09-09T19:15:42.970Z,100.00
2022-09-09T19:18:30.325Z,100.00
2022-09-09T19:21:22.191Z,100.00
2022-09-09T19:24:23.081Z,100.00
2022-09-09T19:27:10.375Z,100.00
2022-09-09T19:29:58.770Z,100.00
2022-09-09T19:32:54.069Z,100.00
2022-09-09T19:35:41.267Z,100.00
2022-09-09T19:38:29.738Z,100.00
2022-09-09T19:41:20.536Z,100.00
2022-09-09T19:44:12.053Z,100.00
2022-09-09T19:47:00.879Z,100.00
2022-09-09T19:49:47.963Z,100.00
2022-09-09T19:52:34.919Z,100.00
2022-09-09T19:55:23.856Z,100.00
2022-09-09T19:58:14.288Z,100.00
2022-09-09T20:01:10.533Z,100.00
2022-09-09T20:04:01.185Z,100.00
2022-09-09T20:06:48.397Z,100.00
2022-09-09T20:09:35.392Z,100.00
2022-09-09T20:12:22.554Z,100.00
2022-09-09T20:15:09.681Z,100.00
2022-09-09T20:17:56.828Z,100.00
2022-09-09T20:20:43.871Z,100.00
2022-09-09T20:23:31.567Z,100.00
2022-09-09T20:26:21.916Z,100.00
2022-09-09T20:29:16.127Z,100.00
2022-09-09T20:32:03.538Z,100.00
2022-09-09T20:34:50.464Z,100.00
2022-09-09T20:37:40.264Z,100.00
2022-09-09T20:40:30.371Z,100.00
2022-09-09T20:43:21.005Z,100.00
2022-09-09T20:46:08.019Z,100.00
2022-09-09T20:49:02.662Z,100.00
2022-09-09T20:51:51.488Z,100.00
2022-09-09T20:54:38.921Z,100.00
2022-09-09T20:57:25.933Z,100.00
2022-09-09T21:00:13.360Z,100.00
2022-09-09T21:03:01.195Z,100.00
2022-09-09T21:05:48.833Z,100.00
2022-09-09T21:08:36.870Z,100.00
2022-09-09T21:11:24.149Z,100.00
2022-09-09T21:14:13.296Z,100.00
2022-09-09T21:17:00.243Z,100.00
2022-09-09T21:19:47.179Z,100.00
2022-09-09T21:22:34.205Z,100.00
2022-09-09T21:25:21.075Z,100.00
2022-09-09T21:28:08.798Z,100.00
2022-09-09T21:30:56.091Z,100.00
2022-09-09T21:33:43.536Z,100.00
2022-09-09T21:36:30.541Z,100.00
2022-09-09T21:39:17.596Z,100.00
2022-09-09T21:42:04.702Z,100.00
2022-09-09T21:44:52.003Z,100.00
2022-09-09T21:47:39.149Z,100.00
2022-09-09T21:50:28.561Z,100.00
2022-09-09T21:53:20.732Z,100.00
2022-09-09T21:56:11.636Z,100.00
2022-09-09T21:59:04.186Z,100.00
2022-09-09T22:01:51.161Z,100.00
2022-09-09T22:04:38.281Z,100.00
2022-09-09T22:07:25.242Z,100.00
2022-09-09T22:10:12.916Z,100.00
2022-09-09T22:12:59.803Z,100.00
2022-09-09T22:15:47.387Z,100.00
2022-09-09T22:18:34.791Z,100.00
2022-09-09T22:21:22.854Z,100.00
2022-09-09T22:24:11.997Z,100.00
2022-09-09T22:26:58.984Z,100.00
2022-09-09T22:29:46.204Z,100.00
2022-09-09T22:32:33.404Z,100.00
2022-09-09T22:35:20.332Z,100.00
2022-09-09T22:38:07.331Z,100.00
2022-09-09T22:40:54.753Z,100.00
2022-09-09T22:43:43.440Z,100.00
2022-09-09T22:46:30.378Z,100.00
2022-09-09T22:49:17.435Z,100.00
2022-09-09T22:52:04.400Z,100.00
2022-09-09T22:54:52.062Z,100.00
2022-09-09T22:57:38.951Z,100.00
2022-09-09T23:00:27.250Z,100.00
2022-09-09T23:03:14.284Z,100.00
2022-09-09T23:06:03.423Z,100.00
2022-09-09T23:08:58.217Z,100.00
2022-09-09T23:11:46.919Z,100.00
2022-09-09T23:14:34.258Z,100.00
2022-09-09T23:17:21.165Z,100.00
2022-09-09T23:20:10.491Z,100.00
2022-09-09T23:22:57.388Z,100.00
2022-09-09T23:25:44.273Z,100.00
2022-09-09T23:28:36.866Z,100.00
2022-09-09T23:31:25.746Z,100.00
2022-09-09T23:34:13.689Z,100.00
2022-09-09T23:37:01.239Z,100.00
2022-09-09T23:39:48.287Z,100.00
2022-09-09T23:42:35.294Z,100.00
2022-09-09T23:45:22.169Z,100.00
2022-09-09T23:48:09.111Z,100.00
2022-09-09T23:50:55.982Z,100.00
2022-09-09T23:53:44.693Z,100.00
2022-09-09T23:56:37.794Z,100.00
2022-09-09T23:59:24.964Z,100.00
